Terminal Aerodrome Forecast
Issued by NWS Norman, OK

Home | Current Version | Previous Version | Text Only | Print | Product List | Glossary On
Versions: 1 2 3 4 5 6 7 8 9 10 11 12 13
000
FTUS44 KOUN 271120
TAFSPS
TAF
KSPS 271120Z 2712/2812 19011KT P6SM SCT250
     FM271400 22012G17KT P6SM SCT250
     FM272200 18010KT P6SM SCT100 BKN250=

USA.gov is the U.S. government's official web portal to all federal, state and local government web resources and services.